Flight Track Log - Related Links

Times and Time Zones

All times are in EDT time to prevent confusion due to time zone crossing. See the SWA3685 flight status page for this flight to view local times or setup timezone preferences in your user account.

Time Position Orientation Groundspeed Altitude Reporting Facility
EDT Latitude Longitude Course Direction KTS MPH feet Rate Location/Type
Fri 02:56:17 PM 41.8167 -87.8000 86° East 257 296 2,600  Level Chicago TRACON
Fri 02:57:23 PM 41.8333 -87.7167 75° East 236 272 3,400 750 Climbing Chicago TRACON
Fri 02:58:17 PM 41.8167 -87.6333 105° East 251 289 4,100 1,274 Climbing Chicago TRACON
Fri 02:59:16 PM 41.8319 -87.5439 77° East 272 313 5,800 2,529 Climbing Chicago Center
Fri 03:00:18 PM 41.8381 -87.4347 86° East 292 336 9,200 3,264 Climbing Chicago Center
Fri 03:01:00 PM 41.7508 -86.8025 86° East  Level FlightAware Approximate
Fri 03:01:21 PM 41.8156 -87.3272 106° East 298 343 12,600  Level Chicago Center
Fri 03:02:23 PM 41.7922 -87.2097 105° East 325 374 15,300 2,565 Climbing Chicago Center
Fri 03:03:25 PM 41.7656 -87.0742 105° East 371 427 17,900 2,710 Climbing Chicago Center
Fri 03:04:27 PM 41.7628 -86.8928 91° East 409 471 20,900 2,516 Climbing Chicago Center
Fri 03:05:29 PM 41.7658 -86.7325 88° East 430 495 23,100 2,177 Climbing Chicago Center
Fri 03:06:31 PM 41.7667 -86.5697 90° East 454 522 25,400 2,032 Climbing Chicago Center
Fri 03:07:33 PM 41.7681 -86.3928 89° East 475 547 27,300 1,694 Climbing Chicago Center
Fri 03:08:35 PM 41.7867 -86.2111 82° East 498 573 28,900 1,597 Climbing Chicago Center
Fri 03:09:37 PM 41.8253 -85.9875 77° East 514 592 30,600 1,694 Climbing Chicago Center
Fri 03:10:39 PM 41.8589 -85.7911 77° East 533 613 32,400 1,935 Climbing Chicago Center
Fri 03:11:41 PM 41.8906 -85.5944 78° East 535 616 34,600 2,016 Climbing Chicago Center
Fri 03:12:44 PM 41.9222 -85.4042 77° East 516 594 36,600 1,152 Climbing Chicago Center
Fri 03:13:46 PM 41.9500 -85.2136 79° East 514 592 37,000 194 Climbing Chicago Center
Fri 03:14:48 PM 41.9508 -85.0153 90° East 525 604 37,000  Level Chicago Center
Fri 03:15:50 PM 41.9506 -84.8175 90° East 530 610 37,000  Level Chicago Center
Fri 03:16:52 PM 41.9483 -84.6197 91° East 530 610 37,000  Level Chicago Center
Fri 03:17:54 PM 41.9625 -84.3839 85° East 527 606 37,000  Level Chicago Center
Fri 03:18:56 PM 41.9869 -84.1847 81° East 526 605 37,000  Level Chicago Center
Fri 03:19:57 PM 42.0047 -84.0092 82° East 522 601 37,000  Level Cleveland Center
Fri 03:20:57 PM 42.0269 -83.8175 81° East 517 595 37,000  Level Cleveland Center
Fri 03:21:57 PM 42.0494 -83.6033 82° East 522 601 37,000  Level Cleveland Center
Fri 03:22:57 PM 42.0753 -83.4114 80° East 522 601 37,000  Level Cleveland Center
Fri 03:23:57 PM 42.0964 -83.2219 81° East 522 601 37,000  Level Cleveland Center
Fri 03:24:57 PM 42.1153 -83.0297 82° East 522 601 37,000  Level Cleveland Center
Fri 03:26:00 PM 42.1348 -82.8604 81° East  Level FlightAware Approximate
Fri 03:26:57 PM 42.1600 -82.6561 81° East 510 587 37,000  Level Cleveland Center
Fri 03:27:57 PM 42.1781 -82.4606 83° East 510 587 37,000  Level Cleveland Center
Fri 03:28:57 PM 42.1975 -82.2733 82° East 510 587 37,000  Level Cleveland Center
Fri 03:29:57 PM 42.2167 -82.1028 81° East 510 587 37,000  Level Cleveland Center
Fri 03:30:57 PM 42.2336 -81.9097 83° East 510 587 37,000  Level Cleveland Center
Fri 03:31:57 PM 42.2547 -81.7025 82° East 510 587 37,000  Level Cleveland Center
Fri 03:32:57 PM 42.2731 -81.5147 82° East 510 587 37,000  Level Cleveland Center
Fri 03:33:57 PM 42.2911 -81.3269 83° East 500 575 37,000  Level Cleveland Center
Fri 03:34:57 PM 42.3089 -81.1364 83° East 506 582 37,000  Level Cleveland Center
Fri 03:35:57 PM 42.3261 -80.9511 83° East 501 577 37,000  Level Cleveland Center
Fri 03:36:57 PM 42.3433 -80.7658 83° East 501 577 37,000  Level Cleveland Center
Fri 03:37:57 PM 42.3581 -80.5747 84° East 501 577 37,000  Level Cleveland Center
Fri 03:38:57 PM 42.3725 -80.4089 83° East 501 577 37,000  Level Cleveland Center
Fri 03:39:57 PM 42.3889 -80.2233 83° East 501 577 37,000  Level Cleveland Center
Fri 03:40:57 PM 42.4047 -80.0347 83° East 502 578 37,000  Level Cleveland Center
Fri 03:41:57 PM 42.4225 -79.8464 83° East 502 578 37,000  Level Cleveland Center
Fri 03:42:57 PM 42.4358 -79.6633 84° East 502 578 37,000  Level Cleveland Center
Fri 03:43:57 PM 42.4508 -79.4772 84° East 502 578 37,000  Level Cleveland Center
Fri 03:44:57 PM 42.4675 -79.2911 83° East 502 578 37,000  Level Cleveland Center
Fri 03:45:57 PM 42.4800 -79.1053 85° East 502 578 37,000  Level Cleveland Center
Fri 03:46:57 PM 42.4919 -78.9192 85° East 502 578 37,000  Level Cleveland Center
Fri 03:47:57 PM 42.5058 -78.7328 84° East 502 578 37,000  Level Cleveland Center
Fri 03:48:57 PM 42.5194 -78.5492 84° East 497 572 37,000  Level Cleveland Center
Fri 03:49:57 PM 42.5325 -78.3600 85° East 502 578 37,000  Level Cleveland Center
Fri 03:50:57 PM 42.5433 -78.1708 85° East 502 578 37,000  Level Cleveland Center
Fri 03:51:57 PM 42.5561 -77.9842 85° East 502 578 37,000  Level Cleveland Center
Fri 03:52:57 PM 42.5678 -77.7722 86° East 502 578 37,000  Level Cleveland Center
Fri 03:53:57 PM 42.5797 -77.5856 85° East 502 578 37,000  Level Cleveland Center
Fri 03:54:57 PM 42.5914 -77.3961 85° East 502 578 37,000  Level Cleveland Center
Fri 03:57:28 PM 42.6158 -76.9833 85° East 497 572 37,000  Level Boston Center
Fri 03:58:28 PM 42.6289 -76.7611 85° East 497 572 37,000  Level Boston Center
Fri 03:59:28 PM 42.6378 -76.5725 86° East 497 572 37,000  Level Boston Center
Fri 04:00:28 PM 42.6489 -76.3811 85° East 497 572 37,000  Level Boston Center
Fri 04:01:28 PM 42.6572 -76.1925 86° East 497 572 37,000  Level Boston Center
Fri 04:02:28 PM 42.6653 -76.0067 87° East 492 566 37,000  Level Boston Center
Fri 04:03:28 PM 42.6753 -75.8178 86° East 492 566 37,000 -300 Level Boston Center
Fri 04:04:28 PM 42.6828 -75.6319 87° East 492 566 36,400 -750 Descending Boston Center
Fri 04:05:28 PM 42.6900 -75.4431 87° East 498 573 35,500 -700 Descending Boston Center
Fri 04:06:28 PM 42.6989 -75.2569 86° East 498 573 35,000 -250 Descending Boston Center
Fri 04:07:28 PM 42.7061 -75.0481 87° East 498 573 35,000  Level Boston Center
Fri 04:08:28 PM 42.7114 -74.8986 87° East 498 573 35,000  Level Boston Center
Fri 04:09:28 PM 42.7203 -74.6728 87° East 498 573 35,000  Level Boston Center
Fri 04:10:28 PM 42.7258 -74.4892 88° East 492 566 35,000  Level Boston Center
Fri 04:11:28 PM 42.7250 -74.2997 90° East 497 572 35,000  Level Boston Center
Fri 04:12:28 PM 42.7092 -74.1128 97° East 497 572 35,000 -250 Level Boston Center
Fri 04:13:28 PM 42.6950 -73.9231 96° East 502 578 34,500 -750 Descending Boston Center
Fri 04:14:28 PM 42.6828 -73.7364 95° East 502 578 33,500 -900 Descending Boston Center
Fri 04:15:28 PM 42.6700 -73.5525 95° East 502 578 32,700 -950 Descending Boston Center
Fri 04:16:28 PM 42.6572 -73.3689 95° East 502 578 31,600 -1,050 Descending Boston Center
Fri 04:17:28 PM 42.6417 -73.1853 97° East 497 572 30,600 -1,050 Descending Boston Center
Fri 04:18:28 PM 42.6303 -73.0072 95° East 492 566 29,500 -1,400 Descending Boston Center
Fri 04:19:28 PM 42.6122 -72.8267 98° East 486 559 27,800 -2,000 Descending Boston Center
Fri 04:20:28 PM 42.5981 -72.6600 97° East 462 532 25,500 -2,250 Descending Boston Center
Fri 04:21:28 PM 42.5858 -72.4936 96° East 448 516 23,300 -2,150 Descending Boston Center
Fri 04:22:28 PM 42.5692 -72.3358 98° East 430 495 21,200 -1,650 Descending Boston Center
Fri 04:23:28 PM 42.5544 -72.1836 97° East 418 481 20,000 -1,750 Descending Boston Center
Fri 04:24:28 PM 42.5456 -72.0483 95° East 383 441 17,700 -2,300 Descending Boston Center
Fri 04:25:28 PM 42.5325 -71.9161 98° East 378 435 15,400 -2,200 Descending Boston Center
Fri 04:26:28 PM 42.5172 -71.7642 98° East 385 443 13,300 -2,050 Descending Boston Center
Fri 04:27:28 PM 42.5081 -71.6403 96° East 373 429 11,300 -1,418 Descending Boston Center
Fri 04:28:18 PM 42.5000 -71.5167 95° East 331 381 10,700 -873 Descending KA90
Fri 04:29:18 PM 42.4833 -71.4000 101° East 310 357 9,700 -1,000 Descending KA90
Fri 04:30:18 PM 42.4667 -71.2833 101° East 301 346 8,700 -1,045 Descending KA90
Fri 04:31:30 PM 42.4667 -71.1500 90° East 295 339 7,400 -773 Descending KA90
Fri 04:32:30 PM 42.4500 -71.0500 103° East 260 299 7,000 -200 Descending KA90
Fri 04:33:30 PM 42.4167 -71.0000 132° Southeast 231 266 7,000  Level KA90
Fri 04:34:18 PM 42.3667 -70.9667 154° Southeast 231 266 7,000 -278 Level KA90
Fri 04:35:18 PM 42.3000 -70.9333 160° South 222 255 6,500 -496 Descending KA90
Fri 04:36:19 PM 42.2500 -70.9667 206° Southwest 197 227 6,000 -446 Descending KA90
Fri 04:37:19 PM 42.2000 -70.9833 194° South 190 219 5,600 -526 Descending KA90
Fri 04:38:13 PM 42.1500 -71.0000 194° South 191 220 5,000 -950 Descending KA90
Fri 04:39:19 PM 42.1833 -71.0833 298° West 212 244 3,700 -1,143 Descending KA90
Fri 04:40:19 PM 42.2333 -71.0667 14° North 203 234 2,600 -1,050 Descending KA90
Fri 04:41:19 PM 42.2833 -71.0500 14° North 161 185 1,600 -895 Descending KA90
Fri 04:42:13 PM 42.3167 -71.0333 20° North 145 167 900 -778 Descending KA90

Login

Don't have an account? Register now (free) for customized features, flight alerts, and more!